Time;durP1;ratioP1;P1;durP2;ratioP2;P2;SDS_P1;SDS_P2;PMS_P1;PMS_P2;Temp;Humidity;BMP_temperature;BMP_pressure;BME280_temperature;BME280_humidity;BME280_pressure;Samples;Min_cycle;Max_cycle;Signal;HPM_P1;HPM_P2
2022/10/24 00:00:42;;;;;;;7.53;5.25;;;;;;;11.87;92.67;99838.52;1720866;82;21038;-81
2022/10/24 00:03:09;;;;;;;8.63;5.37;;;;;;;11.84;92.45;99836.19;1721613;83;21065;-83
2022/10/24 00:05:43;;;;;;;7.15;5.65;;;;;;;11.88;92.12;99842.34;1722968;81;21081;-82
2022/10/24 00:08:09;;;;;;;6.30;4.87;;;;;;;11.86;91.97;99840.36;1720560;81;21068;-82
2022/10/24 00:10:43;;;;;;;8.78;5.95;;;;;;;11.80;92.29;99842.35;1710582;83;21061;-80
2022/10/24 00:13:12;;;;;;;8.30;5.42;;;;;;;11.77;92.36;99830.74;1715877;83;21567;-82
2022/10/24 00:15:38;;;;;;;6.33;5.55;;;;;;;11.83;92.04;99830.04;1731919;81;21101;-80
2022/10/24 00:18:06;;;;;;;7.03;4.90;;;;;;;11.80;91.88;99823.24;1729076;82;21577;-82
2022/10/24 00:20:35;;;;;;;5.65;4.97;;;;;;;11.71;91.92;99827.45;1714352;82;21530;-82
2022/10/24 00:23:04;;;;;;;4.97;4.15;;;;;;;11.66;92.04;99829.79;1710380;82;21036;-85
2022/10/24 00:25:32;;;;;;;6.25;4.67;;;;;;;11.69;92.02;99840.92;1700509;82;20997;-80
2022/10/24 00:27:58;;;;;;;6.53;5.30;;;;;;;11.66;92.17;99842.59;1723291;82;21049;-82
2022/10/24 00:30:26;;;;;;;8.25;5.47;;;;;;;11.59;92.16;99854.44;1702943;82;21053;-81
2022/10/24 00:32:54;;;;;;;7.15;5.47;;;;;;;11.56;92.09;99849.44;1659152;85;21665;-81
2022/10/24 00:35:21;;;;;;;5.75;4.95;;;;;;;11.59;92.00;99855.77;1716373;80;20975;-80
2022/10/24 00:37:49;;;;;;;7.83;5.40;;;;;;;11.51;92.14;99850.48;1713001;82;20955;-81
2022/10/24 00:40:17;;;;;;;5.30;4.80;;;;;;;11.45;92.46;99851.64;1729525;82;21046;-80
2022/10/24 00:42:45;;;;;;;5.22;4.60;;;;;;;11.44;92.49;99850.83;1715772;83;21545;-83
2022/10/24 00:45:44;;;;;;;7.45;5.03;;;;;;;11.49;92.24;99845.83;1682085;85;21100;-82
2022/10/24 00:48:26;;;;;;;6.47;5.45;;;;;;;11.41;92.35;99849.34;1681582;83;21083;-83
2022/10/24 00:51:14;;;;;;;7.12;4.75;;;;;;;11.29;92.88;99841.38;1707796;83;21171;-82
2022/10/24 00:53:44;;;;;;;7.17;4.78;;;;;;;11.29;93.26;99845.88;1649276;87;21067;-82
2022/10/24 00:56:12;;;;;;;5.90;5.12;;;;;;;11.37;93.32;99845.84;1716992;82;21858;-83
2022/10/24 00:58:38;;;;;;;7.08;4.90;;;;;;;11.33;93.58;99846.69;1702208;82;21105;-83
2022/10/24 01:01:05;;;;;;;5.72;5.10;;;;;;;11.27;93.90;99847.38;1697069;82;21214;-84
2022/10/24 01:03:31;;;;;;;5.47;4.65;;;;;;;11.26;93.94;99842.22;1704552;83;21211;-82
2022/10/24 01:06:16;;;;;;;6.28;5.12;;;;;;;11.37;93.85;99853.32;1700094;82;21014;-80
2022/10/24 01:09:23;;;;;;;7.08;4.58;;;;;;;11.38;93.86;99851.52;1713218;82;21573;-79
2022/10/24 01:12:26;;;;;;;10.60;5.53;;;;;;;11.33;94.10;99837.38;1710042;83;21078;-80
2022/10/24 01:15:16;;;;;;;7.83;5.20;;;;;;;11.36;93.81;99840.22;1651637;84;21066;-78
2022/10/24 01:17:54;;;;;;;7.47;5.45;;;;;;;11.36;93.80;99842.38;1631096;86;21074;-79
2022/10/24 01:20:29;;;;;;;10.35;5.00;;;;;;;11.23;94.15;99842.58;1641539;85;21040;-78
2022/10/24 01:23:13;;;;;;;5.67;4.67;;;;;;;11.15;94.48;99841.58;1633660;85;21129;-77
2022/10/24 01:25:51;;;;;;;8.03;5.67;;;;;;;11.18;94.62;99849.71;1690917;83;21058;-81
2022/10/24 01:28:21;;;;;;;8.13;6.37;;;;;;;11.14;95.16;99848.39;1647763;85;21039;-78
2022/10/24 01:31:02;;;;;;;6.55;5.33;;;;;;;11.05;95.53;99852.91;1660563;85;21012;-79
2022/10/24 01:33:36;;;;;;;8.75;5.33;;;;;;;11.03;95.68;99849.59;1658733;85;21542;-78
2022/10/24 01:36:13;;;;;;;7.55;5.40;;;;;;;11.07;95.54;99850.91;1696431;83;21799;-78
2022/10/24 01:38:52;;;;;;;6.22;5.53;;;;;;;11.02;95.95;99851.40;1702663;83;21205;-79
2022/10/24 01:41:20;;;;;;;6.75;5.85;;;;;;;10.90;96.29;99859.91;1691455;83;21624;-80
2022/10/24 01:44:01;;;;;;;7.28;6.10;;;;;;;10.86;96.56;99855.92;1680840;83;21034;-79
2022/10/24 01:46:30;;;;;;;11.40;5.62;;;;;;;10.90;96.55;99857.25;1689890;84;21083;-80
2022/10/24 01:49:07;;;;;;;8.30;5.92;;;;;;;10.87;96.96;99857.06;1700781;83;21095;-77
2022/10/24 01:51:33;;;;;;;7.47;5.37;;;;;;;10.79;97.40;99852.58;1699505;83;21096;-77
2022/10/24 01:54:00;;;;;;;7.12;5.75;;;;;;;10.82;97.37;99852.26;1689418;83;21014;-79
2022/10/24 01:56:26;;;;;;;7.08;6.37;;;;;;;10.92;97.17;99852.59;1710342;83;21640;-78
2022/10/24 01:59:27;;;;;;;8.15;6.20;;;;;;;10.91;97.25;99855.73;1694404;83;21014;-81
2022/10/24 02:02:02;;;;;;;10.32;5.60;;;;;;;10.87;97.51;99853.58;1685904;83;21221;-79
2022/10/24 02:04:30;;;;;;;10.08;6.47;;;;;;;10.95;97.36;99849.58;1682235;85;21453;-78
2022/10/24 02:06:56;;;;;;;8.30;6.70;;;;;;;11.01;97.30;99852.41;1662326;86;21073;-80
2022/10/24 02:09:23;;;;;;;9.43;5.87;;;;;;;10.97;97.54;99843.13;1694936;83;21214;-81
2022/10/24 02:11:50;;;;;;;8.50;5.90;;;;;;;10.94;97.75;99843.95;1693630;83;21001;-77
2022/10/24 02:14:26;;;;;;;8.43;5.53;;;;;;;11.01;97.65;99839.13;1688665;84;21235;-80
2022/10/24 02:16:55;;;;;;;9.28;5.53;;;;;;;11.11;97.25;99854.89;1669416;84;21108;-78
2022/10/24 02:19:21;;;;;;;9.85;6.92;;;;;;;11.11;97.32;99848.24;1713034;82;21026;-78
2022/10/24 02:22:36;;;;;;;11.50;6.67;;;;;;;11.05;97.51;99846.27;1718187;83;21026;-78
2022/10/24 02:25:10;;;;;;;9.03;7.08;;;;;;;11.07;97.47;99848.73;1640919;85;21125;-79
2022/10/24 02:27:44;;;;;;;7.85;5.87;;;;;;;11.15;97.11;99858.87;1680104;85;21228;-77
2022/10/24 02:30:16;;;;;;;10.45;7.03;;;;;;;11.13;97.10;99856.87;1677696;83;21057;-79
2022/10/24 02:32:49;;;;;;;;;;;;;;;11.10;97.20;99860.38;1652503;84;21046;-81
2022/10/24 02:35:17;;;;;;;10.58;6.45;;;;;;;11.13;97.12;99858.21;1665954;84;20211;-77
2022/10/24 02:38:55;;;;;;;10.18;6.42;;;;;;;11.26;97.01;99857.70;1805533;78;28043;-80
2022/10/24 02:41:26;;;;;;;9.30;6.45;;;;;;;11.21;97.02;99862.69;1766943;80;20934;-81
2022/10/24 02:43:53;;;;;;;9.30;5.83;;;;;;;11.18;97.06;99863.01;1746274;81;21199;-81
2022/10/24 02:46:19;;;;;;;9.05;6.40;;;;;;;11.26;96.92;99868.33;1723216;82;20989;-82
2022/10/24 02:48:51;;;;;;;10.13;6.33;;;;;;;11.37;96.63;99864.47;1721342;82;20994;-82
2022/10/24 02:51:18;;;;;;;8.35;6.67;;;;;;;11.41;96.65;99871.10;1728881;82;21032;-82
2022/10/24 02:53:45;;;;;;;9.08;6.78;;;;;;;11.39;96.42;99870.45;1690844;82;21037;-80
2022/10/24 02:56:11;;;;;;;9.90;6.25;;;;;;;11.42;96.23;99876.77;1685396;82;21264;-81
2022/10/24 02:58:38;;;;;;;9.20;7.03;;;;;;;11.49;95.80;99875.58;1735946;82;20997;-80
2022/10/24 03:01:06;;;;;;;10.70;7.15;;;;;;;11.50;95.77;99875.41;1720377;82;21069;-83
2022/10/24 03:03:32;;;;;;;10.18;6.58;;;;;;;11.46;95.88;99876.75;1724094;83;21052;-79
2022/10/24 03:05:59;;;;;;;7.70;6.50;;;;;;;11.46;95.85;99883.41;1720917;82;21108;-76
2022/10/24 03:08:25;;;;;;;11.45;6.37;;;;;;;11.54;95.56;99887.88;1722582;82;21254;-82
2022/10/24 03:10:51;;;;;;;9.18;6.92;;;;;;;11.51;95.59;99887.72;1693881;83;21077;-81
2022/10/24 03:13:19;;;;;;;8.53;6.17;;;;;;;11.48;95.67;99888.05;1707369;82;20970;-83
2022/10/24 03:15:46;;;;;;;11.22;6.42;;;;;;;11.51;95.51;99885.06;1727574;82;20967;-82
2022/10/24 03:18:13;;;;;;;8.88;7.37;;;;;;;11.59;95.29;99885.03;1732304;82;21006;-80
2022/10/24 03:20:39;;;;;;;11.18;7.10;;;;;;;11.57;95.30;99884.38;1729108;82;21161;-79
2022/10/24 03:23:06;;;;;;;10.23;6.25;;;;;;;11.52;95.35;99887.22;1717330;82;20931;-82
2022/10/24 03:25:32;;;;;;;10.30;7.35;;;;;;;11.56;95.29;99888.02;1730475;82;21002;-79
2022/10/24 03:27:59;;;;;;;10.13;7.08;;;;;;;11.58;95.14;99885.20;1722617;82;20999;-81
2022/10/24 03:30:26;;;;;;;10.23;7.12;;;;;;;11.53;95.37;99883.54;1718183;82;21058;-82
2022/10/24 03:32:52;;;;;;;9.28;7.12;;;;;;;11.50;95.34;99891.88;1733534;82;21191;-82
2022/10/24 03:35:18;;;;;;;10.85;6.70;;;;;;;11.56;95.13;99885.36;1711560;82;21050;-84
2022/10/24 03:37:45;;;;;;;9.05;7.30;;;;;;;11.56;94.98;99889.35;1727209;82;21022;-79
2022/10/24 03:40:11;;;;;;;11.38;7.33;;;;;;;11.50;95.32;99884.72;1703232;83;21540;-78
2022/10/24 03:42:38;;;;;;;9.08;6.80;;;;;;;11.47;95.49;99885.55;1765773;80;21011;-80
2022/10/24 03:45:06;;;;;;;13.20;7.15;;;;;;;11.50;95.26;99887.38;1768205;80;21934;-81
2022/10/24 03:47:32;;;;;;;11.63;7.75;;;;;;;11.61;94.96;99892.34;1761245;80;21050;-80
2022/10/24 03:49:59;;;;;;;9.45;7.33;;;;;;;11.59;94.87;99890.35;1775460;80;21037;-81
2022/10/24 03:52:25;;;;;;;13.83;7.75;;;;;;;11.55;95.08;99889.04;1755982;80;21094;-83
2022/10/24 03:54:52;;;;;;;7.20;6.45;;;;;;;11.58;94.92;99894.51;1776298;80;21042;-81
2022/10/24 03:57:18;;;;;;;13.08;7.60;;;;;;;11.67;94.74;99892.67;1694758;82;21771;-82
2022/10/24 03:59:45;;;;;;;9.98;8.13;;;;;;;11.66;94.75;99896.31;1706637;83;21040;-80
2022/10/24 04:02:12;;;;;;;12.33;7.30;;;;;;;11.61;94.78;99899.50;1706107;82;21091;-82
2022/10/24 04:04:40;;;;;;;8.03;6.67;;;;;;;11.58;94.65;99896.66;1782333;78;20907;-81
2022/10/24 04:07:07;;;;;;;9.18;7.05;;;;;;;11.65;94.50;99899.97;1782264;79;20974;-81
2022/10/24 04:09:34;;;;;;;9.98;7.55;;;;;;;11.61;94.64;99895.00;1755326;80;21355;-79
2022/10/24 04:12:00;;;;;;;11.97;6.62;;;;;;;11.53;94.64;99891.52;1776501;80;21038;-77
2022/10/24 04:14:27;;;;;;;17.85;7.17;;;;;;;11.52;94.68;99894.69;1768625;80;21033;-79
2022/10/24 04:16:53;;;;;;;10.32;7.70;;;;;;;11.57;94.56;99885.70;1755646;80;20994;-81
2022/10/24 04:19:20;;;;;;;10.25;7.75;;;;;;;11.53;94.71;99884.87;1759373;80;21240;-80
2022/10/24 04:21:47;;;;;;;11.40;7.60;;;;;;;11.45;94.96;99881.73;1775333;80;21084;-81
2022/10/24 04:24:14;;;;;;;10.80;7.40;;;;;;;11.45;94.94;99887.56;1760976;80;21500;-81
2022/10/24 04:26:41;;;;;;;12.10;8.20;;;;;;;11.47;94.87;99886.37;1758825;80;21553;-81
2022/10/24 04:29:07;;;;;;;9.70;7.53;;;;;;;11.44;95.06;99900.03;1778383;80;21575;-81
2022/10/24 04:31:34;;;;;;;11.65;6.83;;;;;;;11.36;95.38;99902.72;1696884;83;21037;-81
2022/10/24 04:34:00;;;;;;;9.93;7.87;;;;;;;11.33;95.52;99905.70;1756923;80;21151;-80
2022/10/24 04:36:27;;;;;;;11.38;8.58;;;;;;;11.39;95.53;99912.50;1756469;80;21085;-80
2022/10/24 04:38:53;;;;;;;9.53;8.53;;;;;;;11.37;95.67;99913.17;1763058;80;21029;-80
2022/10/24 04:41:22;;;;;;;9.85;7.12;;;;;;;11.32;95.99;99915.52;1757433;81;21026;-81
2022/10/24 04:43:48;;;;;;;11.45;7.10;;;;;;;11.35;96.10;99924.48;1766484;81;20994;-81
2022/10/24 04:46:15;;;;;;;14.53;9.13;;;;;;;11.42;96.01;99925.98;1759178;81;21127;-81
2022/10/24 04:48:41;;;;;;;12.65;8.75;;;;;;;11.39;96.21;99922.31;1750846;81;21081;-81
2022/10/24 04:51:08;;;;;;;10.88;7.50;;;;;;;11.35;96.42;99923.14;1740366;82;20988;-81
2022/10/24 04:53:35;;;;;;;12.95;8.28;;;;;;;11.41;96.33;99926.97;1740863;81;21042;-81
2022/10/24 04:56:01;;;;;;;9.65;8.30;;;;;;;11.48;96.19;99927.96;1760621;81;21276;-82
2022/10/24 04:58:27;;;;;;;11.05;8.73;;;;;;;11.46;96.33;99932.63;1762483;78;21096;-83
2022/10/24 05:00:54;;;;;;;9.08;7.35;;;;;;;11.45;96.54;99936.27;1764304;79;21116;-82
2022/10/24 05:03:22;;;;;;;11.80;8.55;;;;;;;11.52;96.39;99937.26;1758784;81;21034;-83
2022/10/24 05:05:48;;;;;;;10.13;8.43;;;;;;;11.63;96.13;99937.89;1738654;81;21571;-81
2022/10/24 05:08:16;;;;;;;9.85;8.80;;;;;;;11.61;96.19;99933.59;1760283;81;21053;-86
2022/10/24 05:10:44;;;;;;;11.57;7.83;;;;;;;11.58;96.16;99938.41;1769051;81;20996;-82
2022/10/24 05:13:12;;;;;;;10.63;7.28;;;;;;;11.60;96.06;99940.41;1767867;81;21030;-82
2022/10/24 05:15:39;;;;;;;10.23;9.05;;;;;;;11.69;95.81;99934.06;1740002;81;21058;-82
2022/10/24 05:18:05;;;;;;;13.95;9.60;;;;;;;11.67;95.80;99940.57;1753429;81;21070;-83
2022/10/24 05:20:32;;;;;;;9.90;7.67;;;;;;;11.64;96.15;99944.89;1744534;81;21058;-82
2022/10/24 05:22:59;;;;;;;9.85;8.03;;;;;;;11.65;96.10;99942.55;1755656;81;21169;-82
2022/10/24 05:25:25;;;;;;;9.73;8.25;;;;;;;11.73;95.89;99944.70;1754128;81;20999;-83
2022/10/24 05:27:52;;;;;;;10.70;9.03;;;;;;;11.69;95.90;99947.37;1759942;81;21472;-83
2022/10/24 05:30:18;;;;;;;12.47;10.25;;;;;;;11.63;96.13;99949.86;1746675;81;21015;-83
2022/10/24 05:32:47;;;;;;;11.78;9.00;;;;;;;11.61;96.24;99951.39;1764875;80;21019;-83
2022/10/24 05:35:13;;;;;;;11.78;10.43;;;;;;;11.68;96.19;99952.35;1751376;81;21196;-84
2022/10/24 05:37:39;;;;;;;19.23;12.37;;;;;;;11.70;96.36;99957.51;1757865;81;20989;-84
2022/10/24 05:40:10;;;;;;;12.85;9.45;;;;;;;11.63;96.45;99960.03;1730944;82;21010;-81
2022/10/24 05:42:38;;;;;;;11.22;8.98;;;;;;;11.66;96.49;99957.52;1781667;80;20993;-80
2022/10/24 05:45:08;;;;;;;10.13;9.03;;;;;;;11.75;96.37;99961.83;1782614;80;21074;-84
2022/10/24 05:47:35;;;;;;;16.50;10.08;;;;;;;11.75;96.56;99961.32;1765002;80;21309;-83
2022/10/24 05:50:01;;;;;;;16.02;12.98;;;;;;;11.75;96.66;99957.84;1773897;80;21070;-82
2022/10/24 05:52:27;;;;;;;16.17;11.43;;;;;;;11.82;96.42;99958.83;1769389;80;20976;-82
2022/10/24 05:54:54;;;;;;;18.00;13.98;;;;;;;11.93;96.00;99962.45;1765643;80;21511;-82
2022/10/24 05:57:20;;;;;;;18.57;13.68;;;;;;;11.95;96.00;99959.63;1767814;80;21321;-82
2022/10/24 05:59:47;;;;;;;13.93;9.48;;;;;;;11.94;96.06;99964.13;1768394;80;21991;-82
2022/10/24 06:02:17;;;;;;;12.95;9.75;;;;;;;11.93;96.08;99970.45;1758875;80;21499;-82
2022/10/24 06:04:44;;;;;;;11.43;9.80;;;;;;;12.05;95.68;99967.42;1760095;80;21485;-81
2022/10/24 06:07:11;;;;;;;13.25;10.48;;;;;;;12.11;95.60;99971.57;1773181;80;21061;-81
2022/10/24 06:09:40;;;;;;;11.22;8.70;;;;;;;12.11;95.49;99978.70;1739501;80;21605;-81
2022/10/24 06:12:08;;;;;;;11.57;9.45;;;;;;;12.05;95.42;99978.89;1753728;80;21083;-82
2022/10/24 06:14:36;;;;;;;12.18;8.33;;;;;;;12.09;95.38;99976.72;1782120;80;21058;-82
2022/10/24 06:17:08;;;;;;;11.83;9.53;;;;;;;12.21;95.09;99979.35;1762315;80;21095;-83
2022/10/24 06:19:35;;;;;;;12.03;9.45;;;;;;;12.22;94.97;99977.00;1758989;80;21030;-82
2022/10/24 06:22:03;;;;;;;13.85;10.80;;;;;;;12.18;95.10;99975.18;1752845;80;21030;-82
2022/10/24 06:24:30;;;;;;;11.80;8.78;;;;;;;12.17;95.17;99979.38;1764179;80;21063;-83
2022/10/24 06:26:56;;;;;;;11.43;8.73;;;;;;;12.26;94.74;99980.97;1744141;80;21096;-83
2022/10/24 06:29:23;;;;;;;14.75;10.25;;;;;;;;;;1766935;80;21049;-83
2022/10/24 06:31:50;;;;;;;13.43;9.85;;;;;;;12.30;94.57;99980.13;1772309;80;21089;-81
2022/10/24 06:34:16;;;;;;;10.85;8.48;;;;;;;12.27;94.65;99984.48;1776140;80;21077;-82
2022/10/24 06:36:43;;;;;;;12.75;9.05;;;;;;;12.30;94.60;99990.27;1764063;79;21140;-83
2022/10/24 06:39:09;;;;;;;11.73;9.70;;;;;;;12.39;94.25;99999.90;1765409;80;21026;-84
2022/10/24 06:41:36;;;;;;;12.33;9.95;;;;;;;12.38;94.32;99996.92;1767126;79;21167;-84
2022/10/24 06:44:03;;;;;;;10.10;9.03;;;;;;;12.36;94.39;100002.08;1749571;79;21093;-85
2022/10/24 06:46:30;;;;;;;12.65;9.28;;;;;;;12.37;94.56;99997.09;1755338;80;21027;-82
2022/10/24 06:48:56;;;;;;;12.15;8.63;;;;;;;12.48;94.31;99995.38;1773716;80;21203;-83
2022/10/24 06:51:23;;;;;;;11.12;10.03;;;;;;;12.58;93.92;99995.16;1772781;80;21073;-83
2022/10/24 06:53:49;;;;;;;11.53;10.25;;;;;;;12.58;93.97;99991.16;1751895;80;21049;-84
2022/10/24 06:56:17;;;;;;;11.48;9.53;;;;;;;12.57;93.73;99996.15;1772894;80;21039;-82
2022/10/24 06:58:44;;;;;;;11.18;9.08;;;;;;;12.58;93.37;99997.82;1760111;80;20971;-81
2022/10/24 07:01:15;;;;;;;12.80;11.12;;;;;;;12.64;93.07;99994.45;1703796;82;21030;-82
2022/10/24 07:03:42;;;;;;;15.10;10.03;;;;;;;12.59;93.03;99986.99;1717074;83;20998;-81
2022/10/24 07:06:20;;;;;;;11.15;9.95;;;;;;;12.53;93.35;99990.33;1703078;82;20990;-82
2022/10/24 07:08:48;;;;;;;12.63;10.78;;;;;;;12.49;93.30;99990.36;1720570;83;20978;-84
2022/10/24 07:11:15;;;;;;;17.02;12.18;;;;;;;12.55;93.07;99987.50;1714216;83;21092;-84
2022/10/24 07:13:55;;;;;;;13.65;11.48;;;;;;;12.56;93.13;99991.33;1734653;82;21342;-85
2022/10/24 07:16:24;;;;;;;22.48;12.63;;;;;;;12.52;93.46;100001.19;1714378;83;21020;-82
2022/10/24 07:18:51;;;;;;;14.15;10.90;;;;;;;12.49;93.60;100001.02;1720798;81;21195;-82
2022/10/24 07:21:23;;;;;;;13.90;11.38;;;;;;;12.53;93.75;99997.51;1722981;82;20993;-83
2022/10/24 07:23:50;;;;;;;13.38;11.03;;;;;;;12.66;93.39;100004.95;1692122;83;21029;-82
2022/10/24 07:26:17;;;;;;;15.00;12.20;;;;;;;12.67;93.26;99998.11;1715143;82;22488;-81
2022/10/24 07:28:46;;;;;;;16.48;13.83;;;;;;;12.62;93.40;100001.80;1707968;81;21095;-80
2022/10/24 07:31:16;;;;;;;20.48;12.88;;;;;;;12.59;93.64;99999.47;1715783;81;21061;-85
2022/10/24 07:33:43;;;;;;;17.15;13.58;;;;;;;12.66;93.38;99997.77;1706284;82;21024;-89
2022/10/24 07:36:09;;;;;;;20.32;14.90;;;;;;;12.74;93.09;99997.72;1652053;81;21093;-86
2022/10/24 07:38:36;;;;;;;17.98;14.47;;;;;;;12.72;93.01;100002.39;1653410;85;21407;-77
2022/10/24 07:41:05;;;;;;;19.60;14.70;;;;;;;12.68;93.18;100005.59;1639583;85;21128;-78
2022/10/24 07:43:32;;;;;;;19.92;15.30;;;;;;;12.63;93.33;100007.95;1612516;87;21033;-81
2022/10/24 07:45:59;;;;;;;20.75;14.65;;;;;;;12.64;93.27;100000.30;1613733;87;21100;-75
2022/10/24 07:48:26;;;;;;;18.12;14.60;;;;;;;12.73;93.21;100008.06;1649007;85;21020;-76
2022/10/24 07:50:53;;;;;;;17.82;14.63;;;;;;;12.74;93.22;100004.38;1649801;86;21517;-75
2022/10/24 07:53:20;;;;;;;18.70;14.53;;;;;;;12.70;93.11;99998.25;1615054;87;21025;-80
2022/10/24 07:55:48;;;;;;;20.85;13.95;;;;;;;12.70;93.13;100007.58;1611072;87;21076;-80
2022/10/24 07:58:15;;;;;;;21.52;16.82;;;;;;;12.79;92.96;100002.03;1650707;85;21101;-79
2022/10/24 08:00:47;;;;;;;18.20;13.48;;;;;;;12.79;92.91;100005.20;1645454;85;21047;-87
2022/10/24 08:03:14;;;;;;;18.85;14.40;;;;;;;12.78;93.17;99997.69;1617006;85;21239;-92
2022/10/24 08:05:48;;;;;;;18.20;13.28;;;;;;;12.82;93.25;100000.02;1640627;84;21054;-90
2022/10/24 08:08:32;;;;;;;15.65;13.62;;;;;;;12.95;93.00;99990.93;1649529;80;21037;-92
2022/10/24 08:11:03;;;;;;;19.92;16.02;;;;;;;13.04;92.67;99990.35;1701693;82;21112;-90
2022/10/24 08:14:06;;;;;;;22.87;16.45;;;;;;;12.99;92.44;99994.89;1690788;81;21165;-89
2022/10/24 08:19:15;;;;;;;23.12;17.30;;;;;;;12.98;92.25;99997.25;1634484;83;20148;-89
2022/10/24 08:21:42;;;;;;;21.15;15.85;;;;;;;13.03;92.24;100005.53;1639509;87;20989;-92
2022/10/24 08:27:45;;;;;;;21.23;16.82;;;;;;;13.01;92.40;100006.22;1627494;86;21001;-91
2022/10/24 08:30:19;;;;;;;24.90;17.45;;;;;;;13.07;92.59;100006.83;1635751;84;21124;-87
2022/10/24 08:35:20;;;;;;;22.65;16.70;;;;;;;13.26;91.85;100006.86;1711928;83;21039;-90
2022/10/24 08:37:51;;;;;;;25.95;18.37;;;;;;;13.23;91.68;99999.23;1752450;80;21467;-85
2022/10/24 08:40:18;;;;;;;21.02;16.67;;;;;;;13.19;91.74;100005.91;1740607;80;21068;-84
2022/10/24 08:42:46;;;;;;;18.70;15.43;;;;;;;13.27;91.76;100001.87;1755171;80;21137;-88
2022/10/24 08:45:30;;;;;;;20.17;16.75;;;;;;;13.42;91.48;100006.44;1750380;80;21054;-87
2022/10/24 08:48:10;;;;;;;22.27;16.95;;;;;;;13.49;91.55;99999.38;1743958;80;20992;-87
2022/10/24 08:50:37;;;;;;;20.55;16.10;;;;;;;13.57;91.80;100002.78;1730970;80;21217;-91
2022/10/24 09:01:21;;;;;;;;;;;;;;;13.90;90.87;99998.45;1723269;81;20978;-85
2022/10/24 09:03:57;;;;;;;17.02;13.15;;;;;;;13.98;90.89;100003.39;1688550;83;20136;-86
2022/10/24 09:09:43;;;;;;;19.40;13.40;;;;;;;14.03;88.27;99998.33;1753953;78;21022;-83
2022/10/24 09:12:29;;;;;;;18.90;14.65;;;;;;;13.85;88.13;99996.00;1743424;81;21141;-88
2022/10/24 09:15:29;;;;;;;19.27;13.72;;;;;;;13.70;88.51;99998.16;1721964;80;21066;-86
2022/10/24 09:17:57;;;;;;;21.07;14.25;;;;;;;13.64;88.90;100004.75;1733918;80;21030;-88
2022/10/24 09:20:32;;;;;;;14.55;11.53;;;;;;;13.73;88.74;100007.64;1750619;81;20955;-88
2022/10/24 09:28:56;;;;;;;14.30;11.30;;;;;;;13.60;88.64;100004.77;1699671;78;21533;31
2022/10/24 09:31:23;;;;;;;18.07;12.55;;;;;;;13.67;88.67;100000.36;1665375;84;21053;-80
2022/10/24 09:33:55;;;;;;;16.90;12.10;;;;;;;13.75;88.35;100002.46;1689074;84;21106;-85
2022/10/24 09:36:20;;;;;;;19.27;13.45;;;;;;;13.72;88.42;99993.98;1676232;84;21160;-85
2022/10/24 09:38:48;;;;;;;16.85;13.03;;;;;;;13.64;88.52;99998.89;1662014;84;21206;-85
2022/10/24 09:41:25;;;;;;;23.32;14.70;;;;;;;13.66;88.65;99996.05;1664997;84;21022;-88
2022/10/24 09:43:59;;;;;;;24.05;16.27;;;;;;;13.69;88.58;99995.16;1666381;85;21118;-87
2022/10/24 09:46:44;;;;;;;20.68;15.65;;;;;;;13.61;88.56;99998.42;1665989;84;21085;-86
2022/10/24 09:49:17;;;;;;;20.55;14.93;;;;;;;13.50;88.92;99987.19;1663210;85;21038;-90
2022/10/24 09:51:47;;;;;;;;;;;;;;;13.47;89.17;99990.20;1666428;83;21170;-87
2022/10/24 10:00:47;;;;;;;15.20;13.32;;;;;;;13.41;89.30;99998.12;1581044;86;22339;-86
2022/10/24 10:03:39;;;;;;;17.27;12.40;;;;;;;13.47;88.90;99999.55;1664920;85;21057;-89
2022/10/24 10:13:48;;;;;;;;;;;;;;;;;;;;;
2022/10/24 10:19:36;;;;;;;;;;;;;;;;;;;;;
2022/10/24 10:22:30;;;;;;;14.10;12.10;;;;;;;13.64;88.71;99987.40;1596354;85;21094;-87
2022/10/24 10:24:58;;;;;;;14.25;12.07;;;;;;;13.71;88.01;99998.98;1644449;85;21033;-81
2022/10/24 10:27:40;;;;;;;13.93;11.38;;;;;;;13.63;87.95;100001.74;1670666;84;21036;-79
2022/10/24 10:30:16;;;;;;;15.13;12.55;;;;;;;13.65;88.14;100007.21;1685467;84;21040;-84
2022/10/24 10:33:23;;;;;;;16.12;12.75;;;;;;;13.63;87.97;99998.55;1671244;84;21124;-85
2022/10/24 10:36:06;;;;;;;16.37;11.75;;;;;;;13.53;88.46;99996.66;1677840;84;21028;-85
2022/10/24 10:39:12;;;;;;;18.48;13.80;;;;;;;13.54;88.85;99994.30;1690138;84;21092;-85
2022/10/24 10:41:50;;;;;;;19.82;14.30;;;;;;;13.55;88.72;99990.12;1688810;84;21063;-87
2022/10/24 10:44:25;;;;;;;16.73;12.10;;;;;;;13.48;89.02;99979.88;1646476;86;21038;-86
2022/10/24 10:47:23;;;;;;;14.80;12.15;;;;;;;13.46;89.22;99980.56;1643033;86;21132;-82
2022/10/24 10:49:55;;;;;;;16.80;13.90;;;;;;;13.58;89.23;99987.62;1677649;84;21344;-84
2022/10/24 10:52:30;;;;;;;16.17;13.55;;;;;;;13.59;88.90;99984.44;1686452;84;21159;-86
2022/10/24 10:55:30;;;;;;;20.95;14.07;;;;;;;13.54;88.90;99984.95;1698632;82;21137;-85
2022/10/24 10:58:19;;;;;;;17.65;13.45;;;;;;;13.60;88.95;99980.73;1697791;83;20985;-85
2022/10/24 11:00:57;;;;;;;16.65;13.10;;;;;;;13.67;88.70;99984.34;1675142;84;21598;-84
2022/10/24 11:04:05;;;;;;;15.72;12.28;;;;;;;13.64;88.77;99986.88;1655647;85;21237;-84
2022/10/24 11:06:44;;;;;;;17.65;11.80;;;;;;;13.66;88.57;99989.38;1679327;84;21012;-85
2022/10/24 11:09:31;;;;;;;16.95;12.82;;;;;;;13.79;87.73;99999.41;1676883;84;21115;-85
2022/10/24 11:12:20;;;;;;;14.53;12.40;;;;;;;13.74;87.20;99991.95;1648550;86;21054;-87
2022/10/24 11:14:56;;;;;;;17.35;11.93;;;;;;;13.64;87.58;99991.40;1640344;86;21342;-82
2022/10/24 11:17:25;;;;;;;17.30;12.40;;;;;;;13.63;87.68;99989.22;1646724;84;21061;-83
2022/10/24 11:20:28;;;;;;;16.45;12.23;;;;;;;13.65;87.60;99981.85;1634503;86;21641;-82
2022/10/24 11:23:06;;;;;;;16.73;12.33;;;;;;;13.61;87.73;99977.89;1594064;87;21123;-80
2022/10/24 11:25:43;;;;;;;12.60;10.95;;;;;;;13.59;87.80;99982.59;1635769;86;21530;-80
2022/10/24 11:28:21;;;;;;;14.55;12.47;;;;;;;13.67;87.59;99987.84;1642960;86;21145;-77
2022/10/24 11:30:59;;;;;;;13.03;10.53;;;;;;;13.79;87.44;99984.23;1645989;86;21265;-76
2022/10/24 11:33:29;;;;;;;16.42;11.10;;;;;;;13.81;86.52;99984.88;1631217;86;21117;-77
2022/10/24 11:36:21;;;;;;;11.95;9.90;;;;;;;13.76;86.33;99987.27;1625677;87;21627;-77
2022/10/24 11:39:09;;;;;;;11.50;9.60;;;;;;;13.80;86.13;99985.87;1610089;86;21164;-77
2022/10/24 11:42:04;;;;;;;14.20;11.40;;;;;;;13.85;86.08;99985.32;1647112;86;21050;-77
2022/10/24 11:44:55;;;;;;;12.00;10.43;;;;;;;13.80;85.68;99979.20;1593599;88;21158;-77
2022/10/24 11:47:36;;;;;;;14.50;9.13;;;;;;;13.78;86.04;99983.91;1607733;87;21056;-86
2022/10/24 11:50:23;;;;;;;10.55;9.20;;;;;;;13.90;85.47;99982.42;1594867;88;21075;-86
2022/10/24 11:53:30;;;;;;;12.03;9.55;;;;;;;13.96;84.92;99984.38;1583442;88;21177;-83
2022/10/24 11:56:22;;;;;;;17.50;12.37;;;;;;;13.96;84.81;99981.71;1586875;88;21100;-81
2022/10/24 11:59:04;;;;;;;12.88;9.58;;;;;;;13.97;84.75;99981.20;1592663;88;21277;-82
2022/10/24 12:01:55;;;;;;;12.00;9.28;;;;;;;14.10;84.29;99975.19;1592737;88;21199;-81
2022/10/24 12:05:10;;;;;;;12.40;9.25;;;;;;;14.25;83.64;99962.64;1589147;89;21029;-82
2022/10/24 12:08:05;;;;;;;9.90;8.05;;;;;;;14.33;83.37;99957.70;1530487;92;21072;-81
2022/10/24 12:11:17;;;;;;;8.90;7.40;;;;;;;14.44;82.77;99947.05;1566716;89;21038;-82
2022/10/24 12:14:10;;;;;;;10.25;8.23;;;;;;;14.66;82.14;99946.58;1620193;86;22481;-83
2022/10/24 12:16:52;;;;;;;9.45;7.85;;;;;;;14.85;80.74;99950.48;1640148;86;21159;-78
2022/10/24 12:19:20;;;;;;;10.93;8.30;;;;;;;14.83;79.62;99949.33;1582945;87;21065;-87
2022/10/24 12:21:56;;;;;;;11.38;9.33;;;;;;;14.76;78.98;99956.48;1639961;86;21054;-86
2022/10/24 12:24:36;;;;;;;9.55;7.60;;;;;;;14.66;79.29;99954.61;1619117;86;21114;-86
2022/10/24 12:27:09;;;;;;;9.58;7.75;;;;;;;14.62;79.16;99957.34;1634424;86;21215;-85
2022/10/24 12:29:36;;;;;;;10.53;8.38;;;;;;;14.59;79.17;99956.41;1633240;86;21016;-85
2022/10/24 12:32:24;;;;;;;10.23;8.28;;;;;;;14.48;79.20;99959.02;1637910;86;21028;-81
2022/10/24 12:35:43;;;;;;;13.03;8.63;;;;;;;14.42;79.61;99973.95;1635543;85;21041;-81
2022/10/24 12:38:32;;;;;;;12.50;8.70;;;;;;;14.39;79.91;99978.36;1542506;91;21615;-81